Time;durP1;ratioP1;P1;durP2;ratioP2;P2;SDS_P1;SDS_P2;PMS_P1;PMS_P2;Temp;Humidity;BMP_temperature;BMP_pressure;BME280_temperature;BME280_humidity;BME280_pressure;Samples;Min_cycle;Max_cycle;Signal;HPM_P1;HPM_P2
2022/04/27 00:00:37;;;;;;;48.73;30.40;;;;;;;5.89;93.94;98253.67;1750657;81;20960;-57
2022/04/27 00:03:04;;;;;;;41.40;25.75;;;;;;;5.84;92.87;98249.57;1747726;81;20992;-57
2022/04/27 00:05:31;;;;;;;44.48;27.73;;;;;;;5.80;93.10;98253.79;1759822;79;21370;-57
2022/04/27 00:07:57;;;;;;;41.63;26.37;;;;;;;5.74;92.10;98250.22;1752323;81;21008;-57
2022/04/27 00:10:23;;;;;;;42.45;25.72;;;;;;;5.73;91.96;98251.81;1752239;81;20901;-57
2022/04/27 00:12:49;;;;;;;50.38;32.00;;;;;;;5.66;93.57;98250.61;1752297;81;20841;-57
2022/04/27 00:15:15;;;;;;;47.27;27.27;;;;;;;5.60;93.67;98255.07;1752524;81;20878;-57
2022/04/27 00:17:41;;;;;;;46.73;27.82;;;;;;;5.57;93.65;98248.03;1752189;81;21732;-57
2022/04/27 00:20:08;;;;;;;43.38;26.33;;;;;;;5.53;93.75;98252.24;1752418;81;21044;-57
2022/04/27 00:22:35;;;;;;;43.28;26.27;;;;;;;5.47;94.30;98258.08;1752331;81;21008;-57
2022/04/27 00:25:02;;;;;;;36.83;22.35;;;;;;;5.44;92.23;98255.03;1738627;82;21019;-57
2022/04/27 00:27:28;;;;;;;39.25;24.67;;;;;;;5.37;91.92;98260.02;1741955;82;21031;-57
2022/04/27 00:29:56;;;;;;;40.98;21.52;;;;;;;5.31;94.86;98262.87;1742443;81;21841;-57
2022/04/27 00:32:22;;;;;;;33.78;20.92;;;;;;;5.29;92.89;98259.05;1752219;81;21473;-57
2022/04/27 00:34:47;;;;;;;37.55;20.72;;;;;;;5.25;91.86;98259.26;1751957;81;20976;-57
2022/04/27 00:37:13;;;;;;;38.95;22.80;;;;;;;5.20;91.65;98257.81;1752378;81;21084;-57
2022/04/27 00:39:39;;;;;;;36.63;22.35;;;;;;;5.18;91.90;98262.61;1756339;81;20868;-57
2022/04/27 00:42:18;;;;;;;38.60;23.75;;;;;;;5.17;92.44;98260.98;1742683;81;22152;-57
2022/04/27 00:44:45;;;;;;;46.70;25.68;;;;;;;5.16;91.86;98266.59;1751934;81;21437;-57
2022/04/27 00:47:14;;;;;;;41.55;25.80;;;;;;;5.15;93.04;98267.12;1768127;80;21003;-57
2022/04/27 00:49:44;;;;;;;38.13;24.65;;;;;;;5.16;92.27;98260.70;1747917;81;21027;-57
2022/04/27 00:52:12;;;;;;;40.63;25.88;;;;;;;5.17;93.77;98261.52;1744584;81;21044;-57
2022/04/27 00:54:41;;;;;;;42.08;25.55;;;;;;;5.18;92.53;98261.27;1746405;81;21512;-57
2022/04/27 00:57:08;;;;;;;39.88;25.48;;;;;;;5.19;93.51;98263.42;1720551;82;21543;-57
2022/04/27 00:59:34;;;;;;;35.40;21.85;;;;;;;5.17;94.87;98262.86;1761799;79;20995;-57
2022/04/27 01:02:01;;;;;;;37.20;23.40;;;;;;;5.13;93.83;98262.53;1738882;82;21023;-57
2022/04/27 01:04:28;;;;;;;50.78;26.10;;;;;;;5.12;94.17;98267.59;1749561;81;21059;-57
2022/04/27 01:06:54;;;;;;;40.75;23.73;;;;;;;5.13;94.07;98265.72;1737818;82;21565;-57
2022/04/27 01:09:20;;;;;;;38.13;22.98;;;;;;;5.13;95.08;98265.72;1723520;81;21444;-57
2022/04/27 01:11:45;;;;;;;48.83;29.37;;;;;;;5.13;94.98;98271.09;1747069;81;20915;-57
2022/04/27 01:14:11;;;;;;;55.08;32.63;;;;;;;5.09;95.23;98268.08;1737936;81;20841;-57
2022/04/27 01:16:37;;;;;;;47.53;30.35;;;;;;;5.09;94.65;98267.55;1752484;81;20956;-57
2022/04/27 01:19:05;;;;;;;38.88;21.57;;;;;;;5.08;95.05;98268.60;1752194;81;21626;-57
2022/04/27 01:21:31;;;;;;;36.68;21.27;;;;;;;5.12;93.83;98268.11;1761538;80;20999;-57
2022/04/27 01:23:56;;;;;;;36.58;20.57;;;;;;;5.10;93.94;98263.80;1752564;81;20940;-57
2022/04/27 01:26:22;;;;;;;36.77;20.68;;;;;;;5.13;93.82;98268.40;1745016;81;20877;-57
2022/04/27 01:28:48;;;;;;;32.83;19.12;;;;;;;5.14;93.76;98261.47;1738154;82;21448;-57
2022/04/27 01:31:14;;;;;;;44.55;29.10;;;;;;;5.17;93.75;98269.57;1749920;81;21436;-57
2022/04/27 01:33:40;;;;;;;40.52;23.27;;;;;;;5.16;94.77;98267.94;1738397;81;20983;-57
2022/04/27 01:36:08;;;;;;;36.00;22.87;;;;;;;5.17;93.40;98264.20;1744499;81;20873;-57
2022/04/27 01:38:37;;;;;;;42.03;23.45;;;;;;;5.18;93.28;98265.83;1752401;81;21282;-57
2022/04/27 01:41:02;;;;;;;40.75;21.37;;;;;;;5.19;94.12;98270.14;1760025;81;21020;-57
2022/04/27 01:43:29;;;;;;;36.75;21.73;;;;;;;5.19;94.55;98272.83;1754718;81;22265;-57
2022/04/27 01:45:56;;;;;;;40.38;21.95;;;;;;;5.20;94.35;98273.11;1748695;81;21040;-56
2022/04/27 01:48:22;;;;;;;39.00;23.95;;;;;;;5.20;94.08;98273.11;1759871;79;20984;-57
2022/04/27 01:50:49;;;;;;;38.50;24.02;;;;;;;5.21;95.24;98270.71;1759923;80;21043;-57
2022/04/27 01:55:59;;;;;;;42.58;22.95;;;;;;;5.21;94.39;98273.40;1742463;81;21559;-57
2022/04/27 01:58:25;;;;;;;44.33;26.82;;;;;;;5.20;94.78;98272.58;1728093;82;21008;-57
2022/04/27 02:00:52;;;;;;;46.73;28.80;;;;;;;5.19;95.15;98270.95;1760910;81;20877;-57
2022/04/27 02:03:18;;;;;;;48.10;27.02;;;;;;;5.23;94.86;98276.69;1757110;80;21016;-57
2022/04/27 02:05:45;;;;;;;42.65;23.87;;;;;;;5.25;94.57;98267.85;1747262;81;21145;-57
2022/04/27 02:08:11;;;;;;;47.33;25.43;;;;;;;5.25;93.93;98267.85;1763740;81;21439;-57
2022/04/27 02:10:37;;;;;;;38.90;24.27;;;;;;;5.24;93.94;98271.06;1752659;81;20920;-57
2022/04/27 02:13:04;;;;;;;50.33;26.90;;;;;;;5.24;93.79;98275.62;1752288;81;21047;-57
2022/04/27 02:15:31;;;;;;;43.50;25.32;;;;;;;5.25;93.76;98274.04;1756127;81;21003;-57
2022/04/27 02:17:56;;;;;;;38.83;24.45;;;;;;;5.27;93.65;98273.27;1737918;82;20979;-57
2022/04/27 02:20:23;;;;;;;38.25;23.32;;;;;;;5.23;94.18;98273.47;1740151;81;21516;-57
2022/04/27 02:22:51;;;;;;;34.90;21.65;;;;;;;5.24;93.75;98271.06;1752180;81;20977;-56
2022/04/27 02:25:18;;;;;;;40.65;22.17;;;;;;;5.16;94.91;98272.78;1752312;81;21456;-57
2022/04/27 02:27:44;;;;;;;37.67;21.50;;;;;;;5.16;94.77;98277.34;1755034;81;20984;-57
2022/04/27 02:30:10;;;;;;;35.05;21.85;;;;;;;5.14;95.18;98279.46;1756178;79;22369;-58
2022/04/27 02:32:37;;;;;;;34.55;22.58;;;;;;;5.18;94.24;98272.55;1738880;82;21071;-57
2022/04/27 02:35:05;;;;;;;41.18;23.12;;;;;;;5.24;93.88;98272.94;1743038;81;21406;-57
2022/04/27 02:37:31;;;;;;;43.05;25.62;;;;;;;5.28;93.80;98278.11;1752247;81;20993;-57
2022/04/27 02:39:58;;;;;;;63.75;37.08;;;;;;;5.29;93.78;98277.05;1752566;81;20929;-57
2022/04/27 02:42:24;;;;;;;45.28;27.00;;;;;;;5.27;93.35;98278.64;1768756;81;21004;-57
2022/04/27 02:44:50;;;;;;;52.03;31.42;;;;;;;5.26;92.94;98277.02;1741781;81;21114;-57
2022/04/27 02:47:16;;;;;;;54.05;30.97;;;;;;;5.25;93.66;98280.75;1752349;81;21462;-57
2022/04/27 02:52:27;;;;;;;47.27;26.45;;;;;;;5.30;93.49;98279.52;1748324;81;21009;-57
2022/04/27 02:54:52;;;;;;;50.95;27.52;;;;;;;5.33;93.44;98283.59;1746506;81;20881;-57
2022/04/27 02:57:18;;;;;;;40.73;25.85;;;;;;;5.38;94.04;98287.70;1752504;81;21171;-57
2022/04/27 02:59:44;;;;;;;42.88;26.10;;;;;;;5.41;93.87;98281.88;1752095;81;20889;-57
2022/04/27 03:02:10;;;;;;;41.75;24.25;;;;;;;5.40;94.71;98286.15;1752672;81;20963;-57
2022/04/27 03:04:36;;;;;;;43.83;24.40;;;;;;;5.37;94.07;98278.83;1752355;81;20904;-57
2022/04/27 03:07:03;;;;;;;47.03;29.55;;;;;;;5.38;95.57;98280.48;1752488;81;20881;-57
2022/04/27 03:09:29;;;;;;;42.88;24.20;;;;;;;5.40;95.93;98276.74;1752244;81;21653;-57
2022/04/27 03:11:55;;;;;;;38.95;22.15;;;;;;;5.43;94.42;98283.78;1752537;81;20993;-57
2022/04/27 03:14:22;;;;;;;39.10;24.07;;;;;;;5.40;94.50;98281.59;1752280;81;21579;-57
2022/04/27 03:16:52;;;;;;;39.70;21.85;;;;;;;5.37;95.10;98288.77;1752434;81;20973;-57
2022/04/27 03:19:19;;;;;;;43.50;22.13;;;;;;;5.36;95.04;98289.83;1752389;81;21429;-57
2022/04/27 03:21:45;;;;;;;34.10;22.02;;;;;;;5.36;94.73;98290.64;1751971;81;21481;-57
2022/04/27 03:24:11;;;;;;;35.43;21.95;;;;;;;5.37;94.62;98292.27;1752333;81;20869;-57
2022/04/27 03:26:37;;;;;;;36.35;21.57;;;;;;;5.41;94.77;98296.66;1764041;81;20935;-57
2022/04/27 03:29:03;;;;;;;37.53;23.35;;;;;;;5.43;94.33;98298.56;1769821;79;20861;-57
2022/04/27 03:31:30;;;;;;;41.68;24.65;;;;;;;5.42;94.55;98299.63;1747020;81;21445;-58
2022/04/27 03:33:56;;;;;;;39.83;24.60;;;;;;;5.46;95.73;98303.45;1741268;81;21376;-57
2022/04/27 03:36:22;;;;;;;38.65;23.57;;;;;;;5.49;95.28;98302.18;1748390;81;21045;-57
2022/04/27 03:38:50;;;;;;;39.75;25.48;;;;;;;5.52;94.70;98300.34;1750107;81;21501;-57
2022/04/27 03:41:20;;;;;;;55.28;27.58;;;;;;;5.55;94.68;98303.89;1745248;81;21075;-57
2022/04/27 03:43:47;;;;;;;42.75;24.25;;;;;;;5.61;95.22;98305.09;1745198;80;21503;-57
2022/04/27 03:46:13;;;;;;;54.33;23.15;;;;;;;5.65;95.17;98308.13;1753022;81;21082;-57
2022/04/27 03:48:40;;;;;;;45.17;25.62;;;;;;;5.64;95.97;98307.84;1761838;79;21008;-57
2022/04/27 03:51:06;;;;;;;40.83;24.90;;;;;;;5.64;95.72;98309.19;1750360;81;22031;-57
2022/04/27 03:53:32;;;;;;;44.75;27.25;;;;;;;5.62;95.75;98306.72;1734545;81;21074;-57
2022/04/27 03:55:58;;;;;;;47.90;28.32;;;;;;;5.64;96.18;98313.23;1737493;81;21044;-57
2022/04/27 03:58:24;;;;;;;39.10;23.25;;;;;;;5.65;96.08;98313.51;1726601;81;21406;-57
2022/04/27 04:00:50;;;;;;;46.42;24.92;;;;;;;5.67;95.82;98319.45;1733281;82;20939;-57
2022/04/27 04:03:15;;;;;;;37.98;24.20;;;;;;;5.67;95.91;98323.48;1740697;79;20900;-57
2022/04/27 04:05:42;;;;;;;43.68;26.60;;;;;;;5.71;95.31;98311.18;1758563;81;20944;-57
2022/04/27 04:08:07;;;;;;;48.50;27.87;;;;;;;5.76;94.93;98327.95;1758130;81;21047;-57
2022/04/27 04:10:34;;;;;;;43.38;26.23;;;;;;;5.79;94.70;98329.61;1754251;81;21072;-57
2022/04/27 04:13:00;;;;;;;49.53;28.60;;;;;;;5.86;94.57;98334.85;1752502;81;21000;-57
2022/04/27 04:15:26;;;;;;;55.90;26.97;;;;;;;5.91;95.39;98334.45;1755231;81;20993;-57
2022/04/27 04:17:52;;;;;;;47.80;26.77;;;;;;;5.90;95.28;98339.55;1762846;81;22083;-57
2022/04/27 04:20:18;;;;;;;42.50;25.05;;;;;;;5.92;95.01;98340.13;1743166;81;20960;-57
2022/04/27 04:22:45;;;;;;;48.85;25.80;;;;;;;5.96;94.46;98345.82;1741646;81;22232;-57
2022/04/27 04:30:40;;;;;;;49.98;29.87;;;;;;;6.02;94.61;98360.19;1728705;81;21012;-57
2022/04/27 04:33:06;;;;;;;44.53;29.02;;;;;;;6.05;94.56;98363.73;1757860;81;20967;-57
2022/04/27 04:35:33;;;;;;;47.70;29.00;;;;;;;6.11;94.35;98362.77;1759868;79;21517;-57
2022/04/27 04:37:59;;;;;;;55.90;31.77;;;;;;;6.16;94.12;98368.25;1748900;81;21452;-57
2022/04/27 04:40:25;;;;;;;47.10;28.90;;;;;;;6.19;94.03;98371.27;1740245;81;20956;-57
2022/04/27 04:42:52;;;;;;;51.35;31.70;;;;;;;6.23;93.86;98368.36;1755774;81;20982;-57
2022/04/27 04:45:18;;;;;;;54.65;30.80;;;;;;;6.28;93.76;98366.30;1759964;79;20980;-57
2022/04/27 04:47:44;;;;;;;86.72;49.65;;;;;;;6.31;93.77;98361.77;1739174;81;21483;-57
2022/04/27 04:50:11;;;;;;;114.55;57.35;;;;;;;6.35;93.72;98364.27;1739197;81;20884;-57
2022/04/27 04:52:38;;;;;;;75.25;44.08;;;;;;;6.38;93.78;98361.08;1736821;81;20983;-57
2022/04/27 04:55:05;;;;;;;73.67;44.63;;;;;;;6.43;93.49;98365.75;1738360;81;21007;-57
2022/04/27 04:57:31;;;;;;;81.08;47.08;;;;;;;6.46;93.39;98367.41;1741880;81;21031;-57
2022/04/27 04:59:58;;;;;;;85.83;50.85;;;;;;;6.50;93.32;98364.52;1752416;81;21553;-57
2022/04/27 05:02:24;;;;;;;86.02;52.17;;;;;;;6.48;94.08;98364.47;1767038;81;21039;-57
2022/04/27 05:04:51;;;;;;;90.72;55.10;;;;;;;6.55;93.51;98372.38;1760670;79;21078;-56
2022/04/27 05:07:19;;;;;;;94.10;56.73;;;;;;;6.61;93.47;98375.45;1751308;81;21008;-57
2022/04/27 05:09:45;;;;;;;82.27;50.95;;;;;;;6.66;93.31;98373.64;1760082;79;21022;-57
2022/04/27 05:12:11;;;;;;;77.72;45.10;;;;;;;6.70;93.29;98382.06;1743130;81;21459;-57
2022/04/27 05:14:37;;;;;;;66.25;40.83;;;;;;;6.72;93.25;98382.09;1720986;81;20934;-57
2022/04/27 05:17:04;;;;;;;70.20;41.75;;;;;;;6.77;93.23;98385.41;1737797;81;20975;-57
2022/04/27 05:19:30;;;;;;;70.50;42.88;;;;;;;6.82;93.26;98387.34;1740342;81;21059;-57
2022/04/27 05:21:56;;;;;;;58.28;38.35;;;;;;;6.83;93.63;98388.44;1752258;81;21031;-57
2022/04/27 05:24:22;;;;;;;58.63;39.13;;;;;;;6.80;93.62;98386.25;1752097;81;21528;-57
2022/04/27 05:26:47;;;;;;;61.75;36.13;;;;;;;6.84;93.26;98384.71;1748330;81;20998;-57
2022/04/27 05:31:58;;;;;;;54.35;35.13;;;;;;;6.96;93.27;98391.34;1733663;81;20970;-57
2022/04/27 05:34:26;;;;;;;56.02;31.73;;;;;;;7.01;93.43;98397.62;1737510;79;21028;-57
2022/04/27 05:36:52;;;;;;;56.15;31.02;;;;;;;7.03;93.20;98396.03;1746472;81;22273;-57
2022/04/27 05:39:20;;;;;;;57.60;33.63;;;;;;;7.08;93.04;98396.08;1749204;81;20877;-57
2022/04/27 05:41:46;;;;;;;75.65;36.15;;;;;;;7.09;92.94;98399.06;1737714;81;21019;-57
2022/04/27 05:44:12;;;;;;;46.42;28.67;;;;;;;7.20;92.94;98394.65;1742731;81;20876;-57
2022/04/27 05:46:40;;;;;;;53.30;28.87;;;;;;;7.25;93.01;98398.75;1751833;81;20964;-57
2022/04/27 05:49:06;;;;;;;56.15;32.53;;;;;;;7.34;92.77;98402.64;1742978;81;21238;-57
2022/04/27 05:51:32;;;;;;;49.63;28.83;;;;;;;7.41;92.76;98402.47;1742918;81;20865;-57
2022/04/27 05:53:58;;;;;;;50.98;29.20;;;;;;;7.50;92.96;98404.47;1734889;81;21047;-57
2022/04/27 05:56:24;;;;;;;49.25;28.65;;;;;;;7.58;92.70;98408.08;1751599;81;20864;-57
2022/04/27 05:58:51;;;;;;;49.53;29.77;;;;;;;7.72;92.60;98406.38;1749745;81;21003;-58
2022/04/27 06:01:18;;;;;;;46.77;29.67;;;;;;;7.81;92.42;98410.25;1751830;81;21059;-57
2022/04/27 06:03:44;;;;;;;52.53;28.42;;;;;;;7.88;91.87;98408.19;1745217;81;21215;-57
2022/04/27 06:06:10;;;;;;;45.92;26.80;;;;;;;7.95;91.65;98416.06;1739160;81;21037;-57
2022/04/27 06:08:37;;;;;;;43.35;26.80;;;;;;;8.06;91.48;98415.94;1738065;81;20835;-57
2022/04/27 06:11:03;;;;;;;48.52;28.60;;;;;;;8.16;91.37;98411.18;1743889;81;21024;-57
2022/04/27 06:13:30;;;;;;;46.08;27.25;;;;;;;8.33;91.31;98417.83;1743137;81;21571;-57
2022/04/27 06:15:57;;;;;;;41.50;27.25;;;;;;;8.42;91.21;98417.67;1747117;81;21519;-57
2022/04/27 06:18:23;;;;;;;44.73;27.98;;;;;;;8.54;91.22;98426.95;1742930;81;20996;-57
2022/04/27 06:20:49;;;;;;;40.17;23.70;;;;;;;8.62;91.03;98425.14;1732385;81;21453;-57
2022/04/27 06:23:15;;;;;;;38.17;24.05;;;;;;;8.65;90.72;98424.64;1739610;81;20955;-57
2022/04/27 06:25:41;;;;;;;39.95;23.10;;;;;;;8.69;90.11;98429.26;1747411;81;20989;-56
2022/04/27 06:28:12;;;;;;;40.78;21.87;;;;;;;8.67;89.13;98419.25;1737056;81;21106;-57
2022/04/27 06:30:35;;;;;;;40.80;22.70;;;;;;;8.75;89.63;98428.77;1746263;81;20988;-56
2022/04/27 06:33:02;;;;;;;44.95;26.45;;;;;;;8.84;89.67;98425.88;1738863;81;21031;-57
2022/04/27 06:35:28;;;;;;;48.30;26.75;;;;;;;8.92;89.35;98429.45;1743836;80;21035;-57
2022/04/27 06:37:54;;;;;;;40.33;22.93;;;;;;;8.84;88.97;98429.92;1750268;80;22391;-57
2022/04/27 06:40:20;;;;;;;36.15;20.92;;;;;;;8.82;89.00;98429.38;1738424;80;20846;-57
2022/04/27 06:42:46;;;;;;;30.82;19.37;;;;;;;8.88;88.49;98432.91;1743988;80;21127;-57
2022/04/27 06:45:12;;;;;;;34.88;22.15;;;;;;;8.97;88.84;98427.30;1742915;81;20912;-57
2022/04/27 06:47:38;;;;;;;34.00;21.93;;;;;;;8.89;85.33;98427.81;1743397;80;20984;-57
2022/04/27 06:50:06;;;;;;;36.53;22.77;;;;;;;8.97;86.43;98432.20;1735343;81;21139;-57
2022/04/27 06:52:41;;;;;;;33.67;20.10;;;;;;;9.02;86.09;98433.58;1730451;82;21026;-57
2022/04/27 06:55:09;;;;;;;30.23;17.95;;;;;;;9.08;85.15;98439.84;1707313;82;21055;-57
2022/04/27 06:57:35;;;;;;;35.78;21.55;;;;;;;9.22;85.46;98439.65;1732153;82;21153;-58
2022/04/27 07:00:01;;;;;;;33.30;21.02;;;;;;;9.22;85.46;98439.65;1729410;80;20885;-57
2022/04/27 07:02:28;;;;;;;30.72;18.27;;;;;;;9.30;85.91;98440.52;1733143;81;21417;-57
2022/04/27 07:04:59;;;;;;;33.33;19.30;;;;;;;9.48;85.37;98435.75;1730763;81;21017;-57
2022/04/27 07:07:22;;;;;;;27.50;19.13;;;;;;;9.48;85.37;98435.75;1734960;81;21088;-57
2022/04/27 07:09:47;;;;;;;32.55;20.52;;;;;;;9.57;85.54;98435.52;1733345;81;21003;-57
2022/04/27 07:12:13;;;;;;;31.77;19.55;;;;;;;9.62;85.51;98440.97;1735515;82;20964;-57
2022/04/27 07:14:39;;;;;;;28.67;18.37;;;;;;;9.71;85.85;98443.98;1737069;80;21809;-57
2022/04/27 07:17:05;;;;;;;29.75;19.50;;;;;;;9.75;84.46;98445.11;1739958;81;21051;-57
2022/04/27 07:19:31;;;;;;;30.70;19.52;;;;;;;9.71;83.23;98447.51;1732208;82;20904;-57
2022/04/27 07:21:58;;;;;;;29.65;19.50;;;;;;;9.78;84.57;98448.63;1736019;81;21462;-57
2022/04/27 07:24:24;;;;;;;30.90;19.17;;;;;;;9.80;84.70;98448.63;1738362;81;20992;-57
2022/04/27 07:26:50;;;;;;;28.57;19.32;;;;;;;9.86;84.77;98455.70;1749531;81;21792;-58
2022/04/27 07:29:16;;;;;;;27.32;17.55;;;;;;;9.85;84.67;98462.20;1761809;79;21011;-57
2022/04/27 07:31:42;;;;;;;30.08;19.05;;;;;;;9.86;84.81;98465.72;1751123;81;21027;-57
2022/04/27 07:34:08;;;;;;;33.45;19.82;;;;;;;9.86;84.05;98464.36;1744961;81;21479;-57
2022/04/27 07:36:33;;;;;;;33.98;19.87;;;;;;;9.88;84.31;98468.42;1749904;81;20971;-57
2022/04/27 07:38:59;;;;;;;29.98;20.27;;;;;;;9.75;83.04;98477.58;1733495;81;21537;-57
2022/04/27 07:41:25;;;;;;;26.00;16.30;;;;;;;9.67;82.86;98477.54;1742527;81;20932;-57
2022/04/27 07:43:51;;;;;;;28.60;18.45;;;;;;;9.63;83.06;98481.83;1728817;82;21415;-57
2022/04/27 07:46:17;;;;;;;31.57;20.55;;;;;;;9.69;83.54;98484.84;1732901;82;20866;-57
2022/04/27 07:48:43;;;;;;;32.38;20.77;;;;;;;9.66;83.04;98484.57;1732152;80;21590;-57
2022/04/27 07:51:09;;;;;;;32.75;19.73;;;;;;;9.73;83.65;98485.13;1733081;82;21976;-57
2022/04/27 07:53:36;;;;;;;26.75;18.27;;;;;;;9.73;82.51;98491.35;1731014;81;21094;-57
2022/04/27 07:56:04;;;;;;;29.20;18.80;;;;;;;9.79;83.00;98487.60;1735360;81;21082;-57
2022/04/27 07:58:31;;;;;;;26.77;19.27;;;;;;;9.85;82.71;98491.97;1745981;81;21434;-57
2022/04/27 08:00:57;;;;;;;18.70;12.03;;;;;;;9.85;81.31;98495.22;1741478;81;37024;-57
2022/04/27 08:03:24;;;;;;;18.35;11.93;;;;;;;9.96;82.19;98491.47;1744678;81;21159;-57
2022/04/27 08:05:50;;;;;;;17.32;11.90;;;;;;;9.81;77.63;98500.33;1747186;81;20992;-57
2022/04/27 08:08:16;;;;;;;17.17;10.88;;;;;;;9.67;77.23;98498.38;1739946;80;21579;-57
2022/04/27 08:10:41;;;;;;;17.80;11.00;;;;;;;9.66;77.30;98498.91;1746876;80;20952;-57
2022/04/27 08:13:07;;;;;;;16.30;11.83;;;;;;;9.47;76.81;98503.09;1736423;80;21074;-57
2022/04/27 08:15:33;;;;;;;19.80;12.90;;;;;;;9.57;77.63;98501.30;1738914;81;21264;-57
2022/04/27 08:18:02;;;;;;;22.10;12.90;;;;;;;9.63;78.39;98506.18;1743704;81;20884;-57
2022/04/27 08:23:22;;;;;;;17.40;11.00;;;;;;;9.61;77.27;98511.05;1736809;81;21422;-58
2022/04/27 08:25:48;;;;;;;18.67;12.53;;;;;;;9.72;77.83;98510.02;1732302;81;21089;-57
2022/04/27 08:28:14;;;;;;;18.30;12.43;;;;;;;9.72;77.04;98511.38;1741295;81;21876;-56
2022/04/27 08:30:43;;;;;;;14.68;10.95;;;;;;;9.64;76.20;98519.98;1726096;80;21005;-57
2022/04/27 08:33:09;;;;;;;20.30;13.83;;;;;;;9.63;76.62;98522.95;1747052;80;21088;-57
2022/04/27 08:35:36;;;;;;;21.87;14.38;;;;;;;9.66;77.27;98523.27;1744489;81;21083;-57
2022/04/27 08:38:04;;;;;;;19.67;12.78;;;;;;;9.72;77.61;98524.09;1756149;80;21791;-57
2022/04/27 08:40:30;;;;;;;24.32;15.00;;;;;;;9.71;77.43;98529.23;1757604;79;21044;-57
2022/04/27 08:42:57;;;;;;;27.77;15.28;;;;;;;9.73;77.61;98531.13;1747001;81;21674;-57
2022/04/27 08:45:23;;;;;;;29.82;14.80;;;;;;;9.78;77.88;98525.22;1734339;81;21415;-57
2022/04/27 08:47:52;;;;;;;22.98;13.68;;;;;;;9.78;77.80;98530.63;1743395;81;21564;-57
2022/04/27 08:50:20;;;;;;;22.42;13.93;;;;;;;9.85;77.87;98527.16;1740016;80;21429;-57
2022/04/27 08:52:47;;;;;;;21.75;13.10;;;;;;;9.84;77.37;98526.08;1740692;80;21528;-57
2022/04/27 08:55:13;;;;;;;33.25;21.33;;;;;;;9.82;76.97;98535.78;1743427;81;21054;-57
2022/04/27 08:57:39;;;;;;;29.80;18.85;;;;;;;9.93;77.82;98530.45;1732562;81;20976;-57
2022/04/27 09:00:08;;;;;;;47.48;30.20;;;;;;;9.98;77.65;98529.92;1728526;82;20884;-57
2022/04/27 09:02:35;;;;;;;24.55;16.25;;;;;;;10.05;77.89;98529.14;1740376;81;21485;-57
2022/04/27 09:05:10;;;;;;;24.82;16.23;;;;;;;9.94;76.02;98532.89;1736614;81;21110;-57
2022/04/27 09:07:44;;;;;;;23.32;14.85;;;;;;;10.00;76.24;98526.43;1733645;81;21015;-57
2022/04/27 09:10:15;;;;;;;29.35;15.65;;;;;;;10.10;77.24;98530.53;1742859;80;21059;-57
2022/04/27 09:12:46;;;;;;;44.20;26.77;;;;;;;10.01;75.76;98536.72;1744665;81;21032;-57
2022/04/27 09:15:13;;;;;;;21.95;15.28;;;;;;;10.04;76.45;98530.23;1735912;80;21012;-57
2022/04/27 09:23:37;;;;;;;25.20;14.65;;;;;;;9.73;75.69;98534.65;1739850;81;21206;-57
2022/04/27 09:26:01;;;;;;;23.40;15.50;;;;;;;9.87;75.90;98534.47;1734203;81;21408;-57
2022/04/27 09:28:32;;;;;;;22.30;15.30;;;;;;;9.93;75.37;98538.58;1712943;80;27645;-56
2022/04/27 09:30:56;;;;;;;;;;;;;;;10.00;75.86;98542.67;1735909;81;21074;-57
2022/04/27 09:33:36;;;;;;;49.15;32.50;;;;;;;10.03;76.22;98537.27;1736917;79;20186;-58
2022/04/27 09:36:22;;;;;;;39.25;26.75;;;;;;;10.11;75.76;98537.58;1738226;82;21080;-57
2022/04/27 09:38:48;;;;;;;32.90;20.77;;;;;;;10.22;75.82;98534.91;1728924;81;21126;-57
2022/04/27 09:41:13;;;;;;;20.23;14.13;;;;;;;10.27;75.77;98537.14;1732234;82;21633;-57
2022/04/27 09:43:46;;;;;;;21.42;13.80;;;;;;;10.31;75.05;98541.47;1738187;80;21142;-57
2022/04/27 09:46:22;;;;;;;23.60;14.25;;;;;;;10.39;75.49;98541.77;1734978;82;20994;-57
2022/04/27 09:48:48;;;;;;;31.87;23.10;;;;;;;10.37;75.34;98538.52;1725752;81;21095;-58
2022/04/27 09:51:14;;;;;;;24.43;16.40;;;;;;;10.40;74.61;98541.23;1744561;80;21182;-57
2022/04/27 09:53:43;;;;;;;18.20;12.13;;;;;;;10.50;74.92;98537.20;1745998;81;20993;-56
2022/04/27 09:56:12;;;;;;;22.97;14.23;;;;;;;10.55;74.92;98535.87;1745613;81;21074;-57
2022/04/27 09:58:44;;;;;;;19.80;12.95;;;;;;;10.49;73.96;98540.17;1730009;82;21488;-57
2022/04/27 10:01:14;;;;;;;24.37;16.65;;;;;;;10.28;72.79;98536.05;1736772;81;21129;-58
2022/04/27 10:03:40;;;;;;;113.90;58.92;;;;;;;10.29;72.64;98537.68;1751456;80;21012;-57
2022/04/27 10:06:06;;;;;;;63.02;38.33;;;;;;;10.54;73.87;98538.31;1742666;81;20866;-58
2022/04/27 10:08:35;;;;;;;37.65;24.52;;;;;;;10.49;72.15;98542.34;1751794;81;21326;-57
2022/04/27 10:11:00;;;;;;;23.15;13.98;;;;;;;10.47;72.25;98540.99;1745115;81;21024;-57
2022/04/27 10:13:26;;;;;;;17.37;12.03;;;;;;;10.57;72.87;98540.48;1748088;80;20924;-57
2022/04/27 10:15:52;;;;;;;18.92;13.00;;;;;;;10.50;71.59;98537.20;1740758;80;20881;-57
2022/04/27 10:18:19;;;;;;;26.27;15.13;;;;;;;10.57;70.98;98539.13;1740466;79;20969;-57
2022/04/27 10:20:45;;;;;;;36.13;27.07;;;;;;;10.78;71.48;98531.87;1688359;81;21461;-57
2022/04/27 10:23:27;;;;;;;21.35;13.78;;;;;;;11.00;72.18;98539.20;1707947;82;21456;-57
2022/04/27 10:26:17;;;;;;;16.90;11.30;;;;;;;11.02;70.56;98538.92;1734834;81;21449;-57
2022/04/27 10:28:51;;;;;;;16.15;11.60;;;;;;;10.93;69.43;98544.61;1738447;81;21428;-56
2022/04/27 10:31:49;;;;;;;16.25;12.80;;;;;;;11.27;70.57;98544.37;1739724;81;20972;-57
2022/04/27 10:34:21;;;;;;;22.65;15.32;;;;;;;11.56;70.95;98543.83;1745028;81;21079;-57
2022/04/27 10:36:51;;;;;;;44.42;26.77;;;;;;;11.82;70.79;98546.80;1736326;80;23041;-57
2022/04/27 10:39:19;;;;;;;25.70;22.95;;;;;;;12.10;69.76;98539.92;1738311;80;20976;-57
2022/04/27 10:41:56;;;;;;;18.23;13.60;;;;;;;12.16;68.98;98544.00;1750009;81;21017;-57
2022/04/27 10:44:50;;;;;;;13.95;11.12;;;;;;;12.16;67.48;98539.38;1744357;82;21125;-57
2022/04/27 10:47:18;;;;;;;17.25;11.50;;;;;;;12.11;66.99;98541.55;1740362;81;21080;-56
2022/04/27 10:49:47;;;;;;;17.13;12.33;;;;;;;12.38;66.44;98541.17;1753177;79;21509;-57
2022/04/27 10:52:12;;;;;;;18.15;12.03;;;;;;;12.64;66.39;98545.94;1733463;80;22273;-57
2022/04/27 10:54:39;;;;;;;15.55;11.18;;;;;;;12.65;64.76;98544.06;1733863;81;21147;-57
2022/04/27 10:57:20;;;;;;;18.02;11.00;;;;;;;12.41;62.56;98541.18;1741753;80;20980;-57
2022/04/27 11:00:01;;;;;;;15.70;11.43;;;;;;;12.70;63.60;98539.38;1734689;80;21872;-57
2022/04/27 11:02:44;;;;;;;14.58;10.80;;;;;;;12.78;62.26;98542.06;1741428;80;21040;-57
2022/04/27 11:05:16;;;;;;;17.12;11.90;;;;;;;13.19;63.88;98541.27;1750278;79;20992;-57
2022/04/27 11:08:01;;;;;;;18.00;13.08;;;;;;;13.48;63.62;98537.77;1743544;80;21033;-58
2022/04/27 11:10:27;;;;;;;18.60;11.57;;;;;;;13.66;61.59;98538.96;1737638;81;21095;-57
2022/04/27 11:12:53;;;;;;;12.37;10.10;;;;;;;14.02;63.21;98532.06;1741060;80;21139;-58
2022/04/27 11:15:23;;;;;;;22.70;11.70;;;;;;;13.91;57.74;98527.81;1747611;79;21378;-57
2022/04/27 11:18:01;;;;;;;15.03;10.60;;;;;;;14.20;61.42;98532.41;1755786;80;21020;-58
2022/04/27 11:20:38;;;;;;;22.48;11.15;;;;;;;14.37;59.30;98527.30;1747848;80;21542;-57
2022/04/27 11:23:09;;;;;;;17.10;11.45;;;;;;;14.49;59.67;98521.44;1739844;81;20993;-57
2022/04/27 11:25:37;;;;;;;19.20;11.35;;;;;;;14.60;59.24;98526.45;1742784;81;21332;-57
2022/04/27 11:28:05;;;;;;;17.97;9.47;;;;;;;14.99;57.89;98528.66;1741560;81;21059;-58
2022/04/27 11:30:31;;;;;;;14.60;9.73;;;;;;;15.16;56.96;98522.11;1746189;80;21715;-57
2022/04/27 11:32:58;;;;;;;19.87;10.60;;;;;;;15.25;55.91;98525.78;1738662;80;20981;-58
2022/04/27 11:35:25;;;;;;;17.65;13.78;;;;;;;15.41;55.27;98523.05;1731578;81;21110;-57
2022/04/27 11:37:54;;;;;;;17.27;9.25;;;;;;;15.49;55.36;98519.64;1749562;81;21615;-58
2022/04/27 11:40:25;;;;;;;15.13;9.63;;;;;;;15.64;52.25;98518.61;1738357;80;20976;-58
2022/04/27 11:42:49;;;;;;;33.10;21.15;;;;;;;15.62;53.56;98522.73;1734685;81;21012;-58
2022/04/27 11:45:20;;;;;;;15.32;11.75;;;;;;;15.70;52.94;98518.75;1742906;81;20873;-58
2022/04/27 11:48:03;;;;;;;14.93;12.07;;;;;;;15.88;54.49;98513.51;1740325;82;20989;-58